Time;durP1;ratioP1;P1;durP2;ratioP2;P2;SDS_P1;SDS_P2;PMS_P1;PMS_P2;Temp;Humidity;BMP_temperature;BMP_pressure;BME280_temperature;BME280_humidity;BME280_pressure;Samples;Min_cycle;Max_cycle;Signal;HPM_P1;HPM_P2
2022/05/04 06:21:39;;;;;;;5.40;4.68;;;;;;;;;;5067484;23;20151;-69
2022/05/04 06:24:06;;;;;;;5.35;4.40;;;;;;;;;;4912080;29;20032;-69
2022/05/04 06:26:32;;;;;;;6.82;4.90;;;;;;;;;;4897817;29;20032;-68
2022/05/04 06:28:59;;;;;;;6.18;4.28;;;;;;;;;;4897487;29;20028;-68
2022/05/04 06:34:11;;;;;;;8.57;4.93;;;;;;;;;;4884621;29;20031;-68
2022/05/04 06:36:39;;;;;;;5.78;4.35;;;;;;;;;;4898146;29;20033;-69
2022/05/04 06:39:06;;;;;;;6.03;4.57;;;;;;;;;;4897239;29;20036;-68
2022/05/04 06:41:33;;;;;;;5.28;4.20;;;;;;;;;;4897691;29;20023;-69
2022/05/04 06:43:59;;;;;;;6.78;4.80;;;;;;;;;;4897794;29;20033;-69
2022/05/04 06:46:25;;;;;;;8.02;4.72;;;;;;;;;;4897651;29;20031;-69
2022/05/04 06:48:52;;;;;;;7.05;4.63;;;;;;;;;;4897497;29;20401;-69
2022/05/04 06:51:18;;;;;;;4.80;4.30;;;;;;;;;;4897761;29;20024;-68
2022/05/04 06:53:45;;;;;;;12.60;4.82;;;;;;;;;;4896972;29;20033;-68
2022/05/04 06:56:11;;;;;;;5.80;5.18;;;;;;;;;;4896720;29;20441;-68
2022/05/04 06:58:37;;;;;;;10.05;4.95;;;;;;;;;;4896782;29;20039;-69
2022/05/04 07:01:08;;;;;;;6.43;5.15;;;;;;;;;;4897308;29;20039;-69
2022/05/04 07:03:34;;;;;;;5.68;4.75;;;;;;;;;;4897406;29;20039;-69
2022/05/04 07:06:00;;;;;;;7.03;5.28;;;;;;;;;;4927430;29;20031;-69
2022/05/04 07:08:27;;;;;;;5.72;5.05;;;;;;;;;;4896833;29;20024;-68
2022/05/04 07:10:53;;;;;;;7.28;5.40;;;;;;;;;;4896996;29;20028;-69
2022/05/04 07:13:19;;;;;;;8.63;5.13;;;;;;;;;;4896480;29;20111;-69
2022/05/04 07:15:46;;;;;;;9.23;5.30;;;;;;;;;;4896930;29;20033;-68
2022/05/04 07:18:12;;;;;;;6.70;4.72;;;;;;;;;;4897209;29;20040;-68
2022/05/04 07:20:38;;;;;;;7.95;5.13;;;;;;;;;;4896281;29;20057;-69
2022/05/04 07:23:05;;;;;;;7.22;4.78;;;;;;;;;;4897014;29;20048;-69
2022/05/04 07:25:31;;;;;;;5.10;4.60;;;;;;;;;;4894424;29;20461;-69
2022/05/04 07:27:59;;;;;;;4.88;4.38;;;;;;;;;;4894804;29;20016;-69
2022/05/04 07:30:25;;;;;;;6.30;4.50;;;;;;;;;;4892240;29;20488;-68
2022/05/04 07:32:51;;;;;;;6.68;5.07;;;;;;;;;;4895336;29;20032;-69
2022/05/04 07:35:18;;;;;;;6.75;4.90;;;;;;;;;;4892238;29;20029;-68
2022/05/04 07:37:45;;;;;;;6.55;4.25;;;;;;;;;;4894837;29;20050;-69
2022/05/04 07:42:57;;;;;;;4.68;4.20;;;;;;;;;;4894862;29;20036;-69
2022/05/04 07:45:23;;;;;;;4.97;4.38;;;;;;;;;;4896153;29;20505;-68
2022/05/04 07:47:50;;;;;;;5.32;4.07;;;;;;;;;;4892671;29;20639;-69
2022/05/04 07:50:17;;;;;;;7.53;4.40;;;;;;;;;;4895441;29;20452;-69
2022/05/04 07:52:44;;;;;;;4.72;4.18;;;;;;;;;;4896279;29;20037;-69
2022/05/04 07:55:13;;;;;;;4.38;3.78;;;;;;;;;;4897848;29;20084;-68
2022/05/04 07:57:39;;;;;;;8.13;4.03;;;;;;;;;;4905224;29;20038;-69
2022/05/04 08:05:41;;;;;;;5.68;4.63;;;;;;;;;;4895418;29;20036;-69
2022/05/04 08:08:08;;;;;;;4.80;4.30;;;;;;;;;;4895188;29;20033;-69
2022/05/04 08:10:34;;;;;;;4.50;4.10;;;;;;;;;;4895911;29;20024;-69
2022/05/04 08:13:01;;;;;;;4.30;3.90;;;;;;;;;;4896271;29;20032;-68
2022/05/04 08:15:30;;;;;;;4.28;3.88;;;;;;;;;;4896621;29;20021;-69
2022/05/04 08:17:57;;;;;;;4.65;3.83;;;;;;;;;;4896000;29;20047;-68
2022/05/04 08:20:24;;;;;;;4.35;3.72;;;;;;;;;;4894145;29;20043;-69
2022/05/04 08:22:51;;;;;;;4.75;3.53;;;;;;;;;;4896182;29;20037;-69
2022/05/04 08:25:17;;;;;;;4.63;3.63;;;;;;;;;;4895915;29;20029;-69
2022/05/04 08:27:44;;;;;;;3.50;3.20;;;;;;;;;;4895955;29;20028;-68
2022/05/04 08:30:11;;;;;;;3.47;3.17;;;;;;;;;;4895628;29;20392;-69
2022/05/04 08:32:37;;;;;;;5.75;3.88;;;;;;;;;;4899461;29;20035;-69
2022/05/04 08:35:03;;;;;;;3.75;3.45;;;;;;;;;;4913778;29;20433;-68
2022/05/04 08:37:30;;;;;;;3.63;3.33;;;;;;;;;;4899424;29;20028;-69
2022/05/04 08:39:57;;;;;;;4.13;3.67;;;;;;;;;;4899924;29;20036;-69
2022/05/04 08:42:23;;;;;;;4.00;3.60;;;;;;;;;;4900324;29;20032;-68
2022/05/04 08:44:55;;;;;;;4.32;3.85;;;;;;;;;;4899511;29;20024;-68
2022/05/04 08:47:22;;;;;;;7.88;3.97;;;;;;;;;;4899369;29;20367;-68
2022/05/04 08:49:49;;;;;;;4.47;3.65;;;;;;;;;;4899461;29;20051;-68
2022/05/04 08:52:15;;;;;;;4.70;3.80;;;;;;;;;;4899537;29;20029;-69
2022/05/04 08:54:44;;;;;;;5.25;3.58;;;;;;;;;;4899785;29;20540;-69
2022/05/04 08:57:11;;;;;;;4.95;3.85;;;;;;;;;;4898211;29;20044;-68
2022/05/04 08:59:37;;;;;;;3.67;3.38;;;;;;;;;;4899543;29;20027;-69
2022/05/04 09:02:04;;;;;;;5.20;3.90;;;;;;;;;;4899120;29;20032;-68
2022/05/04 09:04:31;;;;;;;3.55;3.25;;;;;;;;;;4899700;29;20111;-68
2022/05/04 09:07:00;;;;;;;4.60;4.20;;;;;;;;;;4899382;29;20024;-68
2022/05/04 09:09:27;;;;;;;4.00;3.65;;;;;;;;;;4895964;29;20035;-68
2022/05/04 09:11:54;;;;;;;4.47;4.07;;;;;;;;;;4899211;29;20039;-68
2022/05/04 09:14:25;;;;;;;4.28;3.88;;;;;;;;;;4897930;29;20023;-67
2022/05/04 09:16:52;;;;;;;4.10;3.70;;;;;;;;;;4898482;29;20028;-68
2022/05/04 09:19:19;;;;;;;7.20;3.08;;;;;;;;;;4899004;29;20032;-68
2022/05/04 09:21:49;;;;;;;3.97;3.40;;;;;;;;;;4898171;29;20049;-68
2022/05/04 09:24:16;;;;;;;4.03;3.50;;;;;;;;;;4899760;29;20038;-69
2022/05/04 09:26:44;;;;;;;5.63;3.72;;;;;;;;;;4898719;29;20051;-68
2022/05/04 09:29:14;;;;;;;4.30;3.85;;;;;;;;;;4898653;29;20438;-69
2022/05/04 09:31:41;;;;;;;3.78;3.47;;;;;;;;;;4898278;29;20020;-68
2022/05/04 09:34:08;;;;;;;4.03;3.63;;;;;;;;;;4899100;29;20076;-68
2022/05/04 09:36:35;;;;;;;9.40;3.55;;;;;;;;;;4895279;29;20036;-68
2022/05/04 09:44:57;;;;;;;3.67;3.35;;;;;;;;;;4898273;29;20028;-69
2022/05/04 09:47:24;;;;;;;4.10;3.72;;;;;;;;;;4897509;29;20128;-69
2022/05/04 09:49:53;;;;;;;5.75;3.60;;;;;;;;;;4897476;29;20028;-69
2022/05/04 09:52:25;;;;;;;4.00;3.60;;;;;;;;;;4895543;29;20447;-69
2022/05/04 09:54:53;;;;;;;4.60;3.70;;;;;;;;;;4898144;29;20500;-69
2022/05/04 09:57:20;;;;;;;4.90;3.75;;;;;;;;;;4906678;29;20031;-68
2022/05/04 09:59:47;;;;;;;4.75;4.00;;;;;;;;;;4897926;29;20047;-68
2022/05/04 10:02:14;;;;;;;4.20;3.80;;;;;;;;;;4897693;29;20572;-68
2022/05/04 10:04:42;;;;;;;4.47;3.25;;;;;;;;;;4915008;29;20031;-69
2022/05/04 10:07:10;;;;;;;3.90;3.50;;;;;;;;;;4898398;29;20038;-69
2022/05/04 10:09:36;;;;;;;3.53;3.22;;;;;;;;;;4898089;29;20023;-67
2022/05/04 10:12:03;;;;;;;4.90;3.92;;;;;;;;;;4912097;29;20036;-69
2022/05/04 10:14:30;;;;;;;4.35;3.63;;;;;;;;;;4899922;29;20033;-69
2022/05/04 10:17:28;;;;;;;4.22;3.78;;;;;;;;;;4896769;29;20485;-68
2022/05/04 10:20:03;;;;;;;4.45;3.38;;;;;;;;;;4891215;29;20040;-69
2022/05/04 10:22:36;;;;;;;8.10;3.50;;;;;;;;;;4892104;29;20051;-69
2022/05/04 10:25:04;;;;;;;6.13;3.75;;;;;;;;;;4881193;29;20151;-69
2022/05/04 10:27:30;;;;;;;4.35;3.95;;;;;;;;;;4892773;29;20100;-69
2022/05/04 10:32:46;;;;;;;4.47;3.42;;;;;;;;;;4891214;29;20600;-69
2022/05/04 10:35:15;;;;;;;3.58;3.28;;;;;;;;;;4892130;29;20025;-69
2022/05/04 10:37:54;;;;;;;3.70;3.40;;;;;;;;;;4893764;29;20059;-68
2022/05/04 10:40:27;;;;;;;4.38;3.10;;;;;;;;;;4894530;29;20028;-69
2022/05/04 10:42:56;;;;;;;3.80;3.50;;;;;;;;;;4895016;29;20045;-68
2022/05/04 10:45:24;;;;;;;4.97;3.22;;;;;;;;;;4895231;29;20036;-69
2022/05/04 10:47:50;;;;;;;3.35;2.90;;;;;;;;;;4894883;29;20021;-66
2022/05/04 10:50:19;;;;;;;3.70;3.22;;;;;;;;;;4894908;29;20104;-66
2022/05/04 10:52:47;;;;;;;4.03;3.63;;;;;;;;;;4890371;29;20031;-66
2022/05/04 10:55:13;;;;;;;3.75;3.17;;;;;;;;;;4894384;29;20044;-67
2022/05/04 10:57:42;;;;;;;3.47;3.17;;;;;;;;;;4897147;29;20481;-67
2022/05/04 11:00:10;;;;;;;4.93;2.97;;;;;;;;;;4897747;29;20515;-66
2022/05/04 11:02:43;;;;;;;6.57;2.70;;;;;;;;;;4897307;29;20025;-69
2022/05/04 11:05:13;;;;;;;5.55;3.08;;;;;;;;;;4897104;29;20035;-67
2022/05/04 11:07:39;;;;;;;2.95;2.70;;;;;;;;;;4897181;29;20027;-67
2022/05/04 11:10:06;;;;;;;2.88;2.65;;;;;;;;;;4897193;29;20394;-67
2022/05/04 11:12:32;;;;;;;3.33;3.03;;;;;;;;;;4897455;29;20028;-66
2022/05/04 11:14:59;;;;;;;3.28;2.78;;;;;;;;;;4897241;29;20033;-67
2022/05/04 11:17:31;;;;;;;3.50;3.20;;;;;;;;;;4896949;29;20506;-67
2022/05/04 11:19:58;;;;;;;5.00;2.80;;;;;;;;;;4927005;29;20052;-67
2022/05/04 11:22:24;;;;;;;4.85;3.10;;;;;;;;;;4897028;29;20032;-67
2022/05/04 11:24:51;;;;;;;5.38;2.78;;;;;;;;;;4896888;29;22493;-67
2022/05/04 11:27:18;;;;;;;7.22;2.88;;;;;;;;;;4897281;29;20025;-66
2022/05/04 11:29:44;;;;;;;3.35;3.05;;;;;;;;;;4895682;29;20032;-67
2022/05/04 11:32:19;;;;;;;3.13;2.53;;;;;;;;;;4896901;29;20033;-66
2022/05/04 11:34:45;;;;;;;4.18;2.63;;;;;;;;;;4896644;29;20039;-66
2022/05/04 11:37:12;;;;;;;2.85;2.28;;;;;;;;;;4896718;29;20430;-66
2022/05/04 11:39:39;;;;;;;2.38;2.15;;;;;;;;;;4896705;29;20032;-67
2022/05/04 11:42:09;;;;;;;5.72;2.42;;;;;;;;;;4896811;29;20131;-66
2022/05/04 11:44:38;;;;;;;5.03;2.63;;;;;;;;;;4896868;29;20079;-67
2022/05/04 11:47:04;;;;;;;3.05;2.75;;;;;;;;;;4896698;29;20039;-67
2022/05/04 11:49:37;;;;;;;2.92;2.13;;;;;;;;;;4895991;29;20020;-67
2022/05/04 11:52:04;;;;;;;4.18;2.33;;;;;;;;;;4896253;29;20024;-66
2022/05/04 11:54:30;;;;;;;4.53;2.22;;;;;;;;;;4896785;29;20446;-66
2022/05/04 11:56:57;;;;;;;2.33;1.83;;;;;;;;;;4896157;29;20039;-67
2022/05/04 11:59:33;;;;;;;2.45;1.90;;;;;;;;;;4896635;29;20029;-66
2022/05/04 12:02:00;;;;;;;3.88;2.10;;;;;;;;;;4897080;29;20032;-69
2022/05/04 12:04:27;;;;;;;4.25;2.10;;;;;;;;;;4895310;29;20055;-66
2022/05/04 12:06:53;;;;;;;7.07;2.22;;;;;;;;;;4895741;29;20720;-67
2022/05/04 12:09:19;;;;;;;6.15;2.17;;;;;;;;;;4897233;29;20064;-66
2022/05/04 12:11:46;;;;;;;2.45;1.90;;;;;;;;;;4895890;29;20552;-66
2022/05/04 12:14:15;;;;;;;3.22;1.77;;;;;;;;;;4896368;29;20024;-67
2022/05/04 12:16:42;;;;;;;4.90;2.28;;;;;;;;;;4896215;29;20032;-67
2022/05/04 12:19:09;;;;;;;4.88;2.08;;;;;;;;;;4895837;29;20041;-67
2022/05/04 12:21:37;;;;;;;1.88;1.73;;;;;;;;;;4896258;29;20525;-69
2022/05/04 12:24:04;;;;;;;3.95;2.10;;;;;;;;;;4895899;29;20569;-69
2022/05/04 12:26:30;;;;;;;5.20;2.25;;;;;;;;;;4896035;29;20020;-69
2022/05/04 12:34:31;;;;;;;5.45;2.08;;;;;;;;;;4895940;29;20032;-69
2022/05/04 12:37:02;;;;;;;5.38;1.67;;;;;;;;;;4896170;29;20490;-69
2022/05/04 12:39:28;;;;;;;2.85;1.58;;;;;;;;;;4892294;29;20028;-69
2022/05/04 12:41:56;;;;;;;4.57;1.55;;;;;;;;;;4896018;29;20397;-69
2022/05/04 12:44:23;;;;;;;7.32;1.52;;;;;;;;;;4895876;29;20409;-69
2022/05/04 12:46:53;;;;;;;2.70;1.63;;;;;;;;;;4895359;29;20416;-68
2022/05/04 12:49:21;;;;;;;6.63;1.83;;;;;;;;;;4896217;29;20021;-68
2022/05/04 12:51:47;;;;;;;3.28;2.17;;;;;;;;;;4895971;29;20033;-68
2022/05/04 12:54:15;;;;;;;2.10;1.75;;;;;;;;;;4926575;29;20040;-68
2022/05/04 12:56:47;;;;;;;4.05;2.25;;;;;;;;;;4895818;29;20409;-68
2022/05/04 12:59:17;;;;;;;5.93;1.88;;;;;;;;;;4895853;29;20036;-68
2022/05/04 13:01:44;;;;;;;4.72;2.60;;;;;;;;;;4896251;29;20025;-68
2022/05/04 13:04:12;;;;;;;5.63;2.72;;;;;;;;;;4895834;29;20035;-68
2022/05/04 13:06:39;;;;;;;4.40;2.67;;;;;;;;;;4895532;29;20143;-68
2022/05/04 13:09:05;;;;;;;4.50;2.42;;;;;;;;;;4895728;29;20037;-68
2022/05/04 13:11:31;;;;;;;3.97;2.00;;;;;;;;;;4895461;29;20028;-68
2022/05/04 13:13:58;;;;;;;1.55;1.45;;;;;;;;;;4895555;29;20031;-68
2022/05/04 13:16:24;;;;;;;5.63;1.48;;;;;;;;;;4897622;29;20032;-68
2022/05/04 13:18:51;;;;;;;4.28;1.48;;;;;;;;;;4899135;29;20502;-68
2022/05/04 13:21:18;;;;;;;5.75;1.77;;;;;;;;;;4899609;29;20049;-68
2022/05/04 13:23:44;;;;;;;1.95;1.65;;;;;;;;;;4894784;29;20036;-68
2022/05/04 13:26:12;;;;;;;4.03;1.60;;;;;;;;;;4898532;29;20079;-68
2022/05/04 13:28:38;;;;;;;4.43;1.90;;;;;;;;;;4898640;29;20033;-68
2022/05/04 13:31:05;;;;;;;3.08;2.13;;;;;;;;;;4897745;29;20032;-68
2022/05/04 13:33:32;;;;;;;3.40;2.30;;;;;;;;;;4898434;29;20035;-68
2022/05/04 13:35:59;;;;;;;5.05;2.25;;;;;;;;;;4898597;29;20397;-68
2022/05/04 13:38:25;;;;;;;4.80;2.28;;;;;;;;;;4897964;29;20041;-68
2022/05/04 13:40:53;;;;;;;3.55;2.40;;;;;;;;;;4898479;29;20104;-68
2022/05/04 13:43:19;;;;;;;4.15;2.40;;;;;;;;;;4898774;29;20072;-68
2022/05/04 13:45:47;;;;;;;5.35;3.20;;;;;;;;;;4898722;29;20036;-68
2022/05/04 13:48:14;;;;;;;6.07;2.97;;;;;;;;;;4897168;29;20044;-68
2022/05/04 13:53:25;;;;;;;8.63;3.58;;;;;;;;;;4898063;29;20038;-68
2022/05/04 13:55:53;;;;;;;4.88;3.65;;;;;;;;;;4898328;29;20038;-68
2022/05/04 13:58:20;;;;;;;7.90;3.80;;;;;;;;;;4897853;29;20037;-68
2022/05/04 14:00:47;;;;;;;6.30;3.63;;;;;;;;;;4898341;29;20024;-68
2022/05/04 14:03:13;;;;;;;8.00;4.25;;;;;;;;;;4898727;29;20541;-68
2022/05/04 14:05:40;;;;;;;4.88;3.72;;;;;;;;;;4898317;29;20021;-68
2022/05/04 14:08:07;;;;;;;7.65;4.53;;;;;;;;;;4897466;29;20034;-68
2022/05/04 14:10:34;;;;;;;11.77;3.92;;;;;;;;;;4898004;29;20109;-68
2022/05/04 14:13:01;;;;;;;7.45;4.07;;;;;;;;;;4898353;29;20036;-68
2022/05/04 14:15:27;;;;;;;16.77;5.15;;;;;;;;;;4894449;29;20024;-68
2022/05/04 14:17:54;;;;;;;11.65;5.80;;;;;;;;;;4898042;29;20059;-68
2022/05/04 14:20:21;;;;;;;18.67;5.82;;;;;;;;;;4897440;29;20040;-68
2022/05/04 14:22:48;;;;;;;10.70;4.90;;;;;;;;;;4897401;29;20448;-68
2022/05/04 14:25:14;;;;;;;9.02;4.10;;;;;;;;;;4897997;29;20032;-69
2022/05/04 14:27:40;;;;;;;14.63;4.35;;;;;;;;;;4896921;29;20039;-67
2022/05/04 14:30:07;;;;;;;9.52;4.28;;;;;;;;;;4897735;29;20489;-68
2022/05/04 14:32:34;;;;;;;6.93;4.53;;;;;;;;;;4897494;29;20365;-69
2022/05/04 14:35:01;;;;;;;7.85;4.30;;;;;;;;;;4897237;29;20025;-68
2022/05/04 14:37:27;;;;;;;9.38;5.13;;;;;;;;;;4896059;29;20125;-68
2022/05/04 14:39:54;;;;;;;10.50;5.55;;;;;;;;;;4896100;29;20024;-69
2022/05/04 14:42:20;;;;;;;12.48;5.13;;;;;;;;;;4928053;29;20496;-68
2022/05/04 14:44:46;;;;;;;9.85;4.30;;;;;;;;;;4897609;29;20028;-69
2022/05/04 14:47:13;;;;;;;8.88;4.70;;;;;;;;;;4927429;29;20021;-69
2022/05/04 14:49:40;;;;;;;6.47;4.80;;;;;;;;;;4897266;29;20043;-68
2022/05/04 14:52:06;;;;;;;5.85;5.05;;;;;;;;;;4897520;29;20037;-69
2022/05/04 14:54:33;;;;;;;11.02;4.50;;;;;;;;;;4897931;29;20038;-68
2022/05/04 14:56:59;;;;;;;8.05;5.13;;;;;;;;;;4897372;29;20035;-68
2022/05/04 14:59:25;;;;;;;8.50;4.75;;;;;;;;;;4901972;29;20028;-68
2022/05/04 15:01:52;;;;;;;6.35;4.40;;;;;;;;;;4907871;29;20025;-68
2022/05/04 15:07:03;;;;;;;7.75;5.30;;;;;;;;;;4902939;29;20035;-68
2022/05/04 15:09:29;;;;;;;10.68;6.88;;;;;;;;;;4904232;29;20078;-68
2022/05/04 15:11:57;;;;;;;6.65;5.07;;;;;;;;;;4902440;29;20017;-68
2022/05/04 15:14:23;;;;;;;7.35;5.53;;;;;;;;;;4902886;29;20028;-68
2022/05/04 15:16:50;;;;;;;9.90;5.30;;;;;;;;;;4903420;29;20017;-68
2022/05/04 15:19:16;;;;;;;11.80;4.43;;;;;;;;;;4901977;29;20046;-68
2022/05/04 15:21:43;;;;;;;8.35;5.55;;;;;;;;;;4896156;29;20051;-68
2022/05/04 15:24:09;;;;;;;7.95;5.85;;;;;;;;;;4901053;29;20032;-68
2022/05/04 15:26:36;;;;;;;11.60;6.32;;;;;;;;;;4896836;29;20027;-68
2022/05/04 15:29:03;;;;;;;18.35;7.70;;;;;;;;;;4896756;29;20031;-68
2022/05/04 15:31:29;;;;;;;15.38;7.53;;;;;;;;;;4896843;29;20024;-68
2022/05/04 15:33:56;;;;;;;9.48;6.60;;;;;;;;;;4896556;29;20084;-68
2022/05/04 15:36:22;;;;;;;14.90;7.07;;;;;;;;;;4897105;29;20491;-69
2022/05/04 15:38:52;;;;;;;10.38;7.20;;;;;;;;;;4896439;29;20030;-68
2022/05/04 15:41:18;;;;;;;14.48;7.47;;;;;;;;;;4896661;29;20028;-68
2022/05/04 15:43:45;;;;;;;15.40;7.90;;;;;;;;;;4896447;29;20032;-68
2022/05/04 15:46:11;;;;;;;18.48;8.23;;;;;;;;;;4896566;29;20020;-69
2022/05/04 15:48:37;;;;;;;13.73;7.95;;;;;;;;;;4896511;29;20024;-69
2022/05/04 15:51:04;;;;;;;13.40;8.57;;;;;;;;;;4895719;29;20442;-68
2022/05/04 15:53:31;;;;;;;11.23;7.20;;;;;;;;;;4895450;29;20028;-67
2022/05/04 15:55:57;;;;;;;11.57;7.18;;;;;;;;;;4896839;29;20412;-68
2022/05/04 15:58:24;;;;;;;9.88;7.13;;;;;;;;;;4896899;29;20040;-68
2022/05/04 16:00:52;;;;;;;9.73;7.07;;;;;;;;;;4896806;29;20051;-69
2022/05/04 16:06:03;;;;;;;8.77;6.40;;;;;;;;;;4897248;29;20021;-68
2022/05/04 16:08:30;;;;;;;7.82;5.90;;;;;;;;;;4896551;29;20079;-69
2022/05/04 16:10:56;;;;;;;6.85;5.45;;;;;;;;;;4896919;29;20033;-68
2022/05/04 16:13:23;;;;;;;7.68;4.75;;;;;;;;;;4897047;29;20036;-68
2022/05/04 16:15:49;;;;;;;6.95;5.32;;;;;;;;;;4896708;29;20478;-68
2022/05/04 16:23:46;;;;;;;5.10;2.92;;;;;;;;;;4896762;29;20035;-68
2022/05/04 16:26:15;;;;;;;3.30;2.85;;;;;;;;;;4896666;29;20031;-68
2022/05/04 16:28:41;;;;;;;2.60;1.85;;;;;;;;;;4896586;29;20034;-68
2022/05/04 16:31:08;;;;;;;1.80;1.70;;;;;;;;;;4896576;29;20025;-68
2022/05/04 16:33:34;;;;;;;1.60;1.50;;;;;;;;;;4896401;29;20039;-68
2022/05/04 16:36:00;;;;;;;2.63;1.67;;;;;;;;;;4896971;29;20049;-68
2022/05/04 16:38:26;;;;;;;2.50;1.77;;;;;;;;;;4896437;29;20103;-68
2022/05/04 16:40:53;;;;;;;6.32;2.00;;;;;;;;;;4896440;29;20029;-68
2022/05/04 16:43:20;;;;;;;6.57;2.10;;;;;;;;;;4896501;29;20039;-68
2022/05/04 16:45:46;;;;;;;3.08;1.90;;;;;;;;;;4896490;29;20024;-68
2022/05/04 16:48:13;;;;;;;3.83;1.60;;;;;;;;;;4896978;29;20035;-69
2022/05/04 16:50:43;;;;;;;4.43;1.90;;;;;;;;;;4897207;29;20035;-68
2022/05/04 16:53:12;;;;;;;7.90;1.83;;;;;;;;;;4900346;29;20028;-68
2022/05/04 16:55:39;;;;;;;5.07;2.05;;;;;;;;;;4899995;29;20265;-68
2022/05/04 16:58:06;;;;;;;1.77;1.58;;;;;;;;;;4900108;29;20033;-68
2022/05/04 17:00:32;;;;;;;3.60;1.92;;;;;;;;;;4900266;29;20039;-68
2022/05/04 17:02:58;;;;;;;5.25;1.70;;;;;;;;;;4899966;29;20025;-68
2022/05/04 17:05:25;;;;;;;2.03;1.67;;;;;;;;;;4900027;29;20021;-68
2022/05/04 17:07:51;;;;;;;3.10;1.80;;;;;;;;;;4930254;29;20035;-68
2022/05/04 17:10:19;;;;;;;5.78;1.75;;;;;;;;;;4899886;29;20020;-68
2022/05/04 17:12:46;;;;;;;3.97;1.35;;;;;;;;;;4900101;29;20063;-68
2022/05/04 17:15:13;;;;;;;2.47;1.70;;;;;;;;;;4898823;29;20032;-68
2022/05/04 17:17:39;;;;;;;7.95;1.85;;;;;;;;;;4899714;29;20035;-68
2022/05/04 17:20:06;;;;;;;3.53;1.70;;;;;;;;;;4899428;29;20532;-68
2022/05/04 17:22:32;;;;;;;4.72;1.80;;;;;;;;;;4899810;29;20033;-68
2022/05/04 17:24:59;;;;;;;4.97;1.90;;;;;;;;;;4899894;29;20025;-68
2022/05/04 17:27:26;;;;;;;4.65;2.70;;;;;;;;;;4900123;29;20029;-68
2022/05/04 17:29:52;;;;;;;9.77;2.83;;;;;;;;;;4899262;29;20025;-68
2022/05/04 17:37:49;;;;;;;2.50;1.80;;;;;;;;;;4898148;29;20485;-68
2022/05/04 17:40:15;;;;;;;2.67;1.85;;;;;;;;;;4899353;29;20485;-68
2022/05/04 17:42:41;;;;;;;2.88;1.70;;;;;;;;;;4899545;29;20028;-68
2022/05/04 17:45:08;;;;;;;3.13;2.38;;;;;;;;;;4899358;29;20035;-68
2022/05/04 17:47:34;;;;;;;4.13;2.50;;;;;;;;;;4899241;29;20478;-68
2022/05/04 17:50:01;;;;;;;4.65;2.17;;;;;;;;;;4899058;29;20040;-68
2022/05/04 17:52:27;;;;;;;3.63;2.15;;;;;;;;;;4899536;29;20088;-68
2022/05/04 17:54:53;;;;;;;7.13;3.03;;;;;;;;;;4899080;29;20037;-68
2022/05/04 17:57:20;;;;;;;7.43;2.85;;;;;;;;;;4899573;29;20080;-68
2022/05/04 17:59:46;;;;;;;2.83;1.60;;;;;;;;;;4898651;29;20260;-68
2022/05/04 18:04:57;;;;;;;6.07;2.00;;;;;;;;;;4898777;29;20491;-68
2022/05/04 18:07:23;;;;;;;7.65;2.35;;;;;;;;;;4898990;29;20035;-68
2022/05/04 18:09:50;;;;;;;6.53;2.15;;;;;;;;;;4899073;29;20041;-68
2022/05/04 18:12:16;;;;;;;4.32;2.53;;;;;;;;;;4899436;29;20505;-68
2022/05/04 18:14:44;;;;;;;9.02;2.53;;;;;;;;;;4898368;29;20496;-68
2022/05/04 18:17:11;;;;;;;8.88;4.07;;;;;;;;;;4898647;29;20079;-68
2022/05/04 18:19:37;;;;;;;18.77;9.98;;;;;;;;;;4898517;29;20115;-68
2022/05/04 18:22:04;;;;;;;6.40;3.97;;;;;;;;;;4898559;29;20060;-68
2022/05/04 18:24:30;;;;;;;5.57;2.92;;;;;;;;;;4899353;29;20040;-68
2022/05/04 18:26:56;;;;;;;3.47;2.50;;;;;;;;;;4898375;29;20393;-68
2022/05/04 18:29:23;;;;;;;6.53;2.55;;;;;;;;;;4898347;29;20023;-68
2022/05/04 18:31:49;;;;;;;6.22;2.60;;;;;;;;;;4898444;29;20513;-68
2022/05/04 18:34:15;;;;;;;5.63;2.30;;;;;;;;;;4898725;29;20021;-68
2022/05/04 18:36:42;;;;;;;8.55;2.45;;;;;;;;;;4897257;29;20104;-68
2022/05/04 18:39:15;;;;;;;8.50;2.70;;;;;;;;;;4925716;29;20058;-68
2022/05/04 18:42:13;;;;;;;5.35;3.10;;;;;;;;;;4840693;29;20046;-68
2022/05/04 18:45:00;;;;;;;6.95;3.63;;;;;;;;;;4840401;29;20050;-68
2022/05/04 18:47:26;;;;;;;6.40;2.53;;;;;;;;;;4839601;29;20030;-68
2022/05/04 18:49:52;;;;;;;5.20;2.63;;;;;;;;;;4839311;29;20518;-68
2022/05/04 18:52:18;;;;;;;3.92;2.33;;;;;;;;;;4839249;29;20400;-68
2022/05/04 18:54:45;;;;;;;6.40;2.72;;;;;;;;;;4839904;29;20038;-68
2022/05/04 18:57:12;;;;;;;6.00;2.80;;;;;;;;;;4840460;29;20038;-68
2022/05/04 18:59:39;;;;;;;7.63;3.70;;;;;;;;;;4839017;29;20049;-68
2022/05/04 19:02:06;;;;;;;7.50;3.25;;;;;;;;;;4839111;29;20057;-68
2022/05/04 19:04:32;;;;;;;3.90;2.60;;;;;;;;;;4839432;29;20041;-68
2022/05/04 19:06:58;;;;;;;5.28;2.30;;;;;;;;;;4839356;29;20030;-68
2022/05/04 19:09:25;;;;;;;7.32;2.47;;;;;;;;;;4840447;29;20037;-68
2022/05/04 19:11:51;;;;;;;5.47;2.38;;;;;;;;;;4838831;29;20045;-68
2022/05/04 19:14:18;;;;;;;7.55;2.75;;;;;;;;;;4838624;29;20074;-68
2022/05/04 19:16:45;;;;;;;4.57;3.30;;;;;;;;;;4841103;29;20053;-68
2022/05/04 19:19:12;;;;;;;10.48;4.47;;;;;;;;;;4883921;29;20438;-68
2022/05/04 19:21:39;;;;;;;8.27;4.10;;;;;;;;;;4897586;29;20055;-68
2022/05/04 19:24:05;;;;;;;7.05;3.10;;;;;;;;;;4897401;29;20036;-68
2022/05/04 19:26:32;;;;;;;6.75;2.80;;;;;;;;;;4897104;29;20385;-68
2022/05/04 19:28:59;;;;;;;6.03;2.58;;;;;;;;;;4897342;29;20511;-68
2022/05/04 19:31:28;;;;;;;6.65;2.90;;;;;;;;;;4897514;29;20034;-68
2022/05/04 19:33:57;;;;;;;6.03;2.95;;;;;;;;;;4897625;29;20028;-68
2022/05/04 19:36:24;;;;;;;8.90;4.05;;;;;;;;;;4897945;29;20024;-68
2022/05/04 19:38:52;;;;;;;7.38;2.58;;;;;;;;;;4895875;29;20040;-68
2022/05/04 19:41:21;;;;;;;16.75;3.50;;;;;;;;;;4897124;29;20024;-68
2022/05/04 19:43:47;;;;;;;5.50;2.65;;;;;;;;;;4897235;29;20032;-68
2022/05/04 19:46:14;;;;;;;7.15;2.75;;;;;;;;;;4897388;29;20032;-68
2022/05/04 19:48:41;;;;;;;6.93;2.67;;;;;;;;;;4897338;29;20079;-69
2022/05/04 19:51:07;;;;;;;10.00;3.97;;;;;;;;;;4897459;29;20029;-68
2022/05/04 19:53:34;;;;;;;4.88;3.50;;;;;;;;;;4896969;29;20056;-69
2022/05/04 19:56:00;;;;;;;6.05;3.13;;;;;;;;;;4896901;29;20031;-68
2022/05/04 19:58:27;;;;;;;5.35;3.30;;;;;;;;;;4897044;29;20040;-68
2022/05/04 20:00:54;;;;;;;5.25;3.55;;;;;;;;;;4896845;29;20037;-68
2022/05/04 20:03:23;;;;;;;8.32;4.47;;;;;;;;;;4897445;29;20043;-68
2022/05/04 20:05:49;;;;;;;9.18;4.22;;;;;;;;;;4896845;29;20024;-68
2022/05/04 20:08:15;;;;;;;15.00;4.45;;;;;;;;;;4896880;29;20038;-68
2022/05/04 20:10:42;;;;;;;6.50;3.92;;;;;;;;;;4896411;29;20035;-68
2022/05/04 20:13:09;;;;;;;7.90;4.35;;;;;;;;;;4896960;29;20146;-68
2022/05/04 20:15:35;;;;;;;5.18;4.10;;;;;;;;;;4897058;29;20033;-68
2022/05/04 20:18:01;;;;;;;7.22;4.15;;;;;;;;;;4897049;29;20047;-68
2022/05/04 20:20:28;;;;;;;4.60;3.65;;;;;;;;;;4896425;29;20052;-68
2022/05/04 20:22:54;;;;;;;10.32;3.80;;;;;;;;;;4896582;29;20029;-68
2022/05/04 20:25:20;;;;;;;9.05;3.30;;;;;;;;;;4895930;29;20037;-68
2022/05/04 20:27:48;;;;;;;6.10;3.90;;;;;;;;;;4896905;29;20029;-68
2022/05/04 20:30:15;;;;;;;12.27;6.55;;;;;;;;;;4895571;29;20028;-68
2022/05/04 20:32:42;;;;;;;7.93;4.75;;;;;;;;;;4896556;29;20024;-68
2022/05/04 20:35:08;;;;;;;4.57;3.70;;;;;;;;;;4896556;29;20027;-68
2022/05/04 20:40:19;;;;;;;6.68;2.67;;;;;;;;;;4883819;29;20047;-68
2022/05/04 20:42:46;;;;;;;6.15;2.60;;;;;;;;;;4896717;29;20389;-68
2022/05/04 20:45:12;;;;;;;5.07;2.88;;;;;;;;;;4896919;29;20033;-68
2022/05/04 20:47:39;;;;;;;5.30;3.70;;;;;;;;;;4896663;29;20031;-68
2022/05/04 20:52:50;;;;;;;4.57;2.85;;;;;;;;;;4896060;29;20024;-68
2022/05/04 20:55:18;;;;;;;8.30;2.88;;;;;;;;;;4896776;29;20029;-68
2022/05/04 20:57:44;;;;;;;3.70;2.60;;;;;;;;;;4896388;29;20389;-68
2022/05/04 21:00:10;;;;;;;3.80;2.95;;;;;;;;;;4896773;29;20037;-68
2022/05/04 21:02:37;;;;;;;6.15;3.08;;;;;;;;;;4896339;29;20075;-68
2022/05/04 21:05:05;;;;;;;3.42;3.13;;;;;;;;;;4896515;29;20028;-68
2022/05/04 21:07:32;;;;;;;8.73;3.25;;;;;;;;;;4896034;29;20021;-68
2022/05/04 21:09:59;;;;;;;5.65;3.30;;;;;;;;;;4896238;29;20029;-69
2022/05/04 21:12:25;;;;;;;4.07;3.13;;;;;;;;;;4896939;29;20397;-68
2022/05/04 21:14:52;;;;;;;6.80;3.55;;;;;;;;;;4896235;29;20025;-68
2022/05/04 21:17:18;;;;;;;5.82;3.83;;;;;;;;;;4896203;29;20502;-68
2022/05/04 21:19:44;;;;;;;6.20;4.15;;;;;;;;;;4896010;29;20041;-68
2022/05/04 21:22:11;;;;;;;5.93;4.05;;;;;;;;;;4894541;29;20525;-68
2022/05/04 21:24:37;;;;;;;9.25;4.20;;;;;;;;;;4896559;29;20032;-68
2022/05/04 21:27:03;;;;;;;6.07;4.10;;;;;;;;;;4896476;29;20033;-68
2022/05/04 21:29:30;;;;;;;5.82;4.00;;;;;;;;;;4896063;29;20079;-68
2022/05/04 21:31:58;;;;;;;5.97;4.07;;;;;;;;;;4896361;29;20039;-68
2022/05/04 21:34:25;;;;;;;8.75;3.92;;;;;;;;;;4896110;29;20028;-68
2022/05/04 21:36:51;;;;;;;5.95;3.30;;;;;;;;;;4897003;29;20031;-68
2022/05/04 21:39:17;;;;;;;4.43;2.97;;;;;;;;;;4899940;29;20036;-68
2022/05/04 21:41:44;;;;;;;3.63;3.30;;;;;;;;;;4929967;29;20032;-68
2022/05/04 21:44:10;;;;;;;5.43;3.20;;;;;;;;;;4899402;29;20033;-68
2022/05/04 21:46:37;;;;;;;5.82;3.33;;;;;;;;;;4900278;29;20397;-68
2022/05/04 21:49:03;;;;;;;7.80;3.58;;;;;;;;;;4899693;29;20060;-68
2022/05/04 21:51:29;;;;;;;7.13;3.60;;;;;;;;;;4899477;29;20035;-68
2022/05/04 21:53:55;;;;;;;4.30;3.58;;;;;;;;;;4899159;29;20024;-68